<?xml version="1.0" encoding="UTF-8" standalone="no" ?>
<gpx xmlns="http://www.topografix.com/GPX/1/1" xmlns:xsi="http://www.w3.org/2001/XMLSchema-instance" xsi:schemaLocation="http://www.topografix.com/GPX/1/1 http://www.topografix.com/GPX/1/1/gpx.xsd" version="1.1" creator="VisuGPX - https://www.visugpx.com">
  <metadata>
    <name>Arèches Cuvy 25 Janvier</name>
    <desc><![CDATA[Télésièges en Montée et tout schuss en descente !
belle journée.
Garmin
Grenam13]]></desc>
  </metadata>
  <trk>
    <name><![CDATA[ACTIVE LOG154114]]></name>
    <trkseg>
      <trkpt lat="45.69221" lon="6.56342">
        <ele>1001.574</ele>
        <time>2012-01-25T14:41:14Z</time>
      </trkpt>
      <trkpt lat="45.69221" lon="6.56342">
        <ele>1002.092</ele>
        <time>2012-01-25T14:41:23Z</time>
      </trkpt>
      <trkpt lat="45.69221" lon="6.56342">
        <ele>1002.082</ele>
        <time>2012-01-25T14:41:33Z</time>
      </trkpt>
      <trkpt lat="45.69221" lon="6.56342">
        <ele>1001.548</ele>
        <time>2012-01-25T14:41:43Z</time>
      </trkpt>
      <trkpt lat="45.69221" lon="6.56342">
        <ele>1001.799</ele>
        <time>2012-01-25T14:41:52Z</time>
      </trkpt>
      <trkpt lat="45.69221" lon="6.56342">
        <ele>1001.466</ele>
        <time>2012-01-25T14:42:02Z</time>
      </trkpt>
      <trkpt lat="45.69221" lon="6.56342">
        <ele>1001.27</ele>
        <time>2012-01-25T14:42:13Z</time>
      </trkpt>
      <trkpt lat="45.69221" lon="6.56342">
        <ele>1002.06</ele>
        <time>2012-01-25T14:42:23Z</time>
      </trkpt>
      <trkpt lat="45.69221" lon="6.56342">
        <ele>1001.807</ele>
        <time>2012-01-25T14:42:32Z</time>
      </trkpt>
      <trkpt lat="45.69221" lon="6.56342">
        <ele>1001.638</ele>
        <time>2012-01-25T14:42:43Z</time>
      </trkpt>
      <trkpt lat="45.69221" lon="6.56342">
        <ele>1001.455</ele>
        <time>2012-01-25T14:42:53Z</time>
      </trkpt>
      <trkpt lat="45.69221" lon="6.56342">
        <ele>1001.878</ele>
        <time>2012-01-25T14:43:03Z</time>
      </trkpt>
      <trkpt lat="45.69221" lon="6.56342">
        <ele>1002.082</ele>
        <time>2012-01-25T14:43:13Z</time>
      </trkpt>
      <trkpt lat="45.69221" lon="6.56342">
        <ele>1001.831</ele>
        <time>2012-01-25T14:43:22Z</time>
      </trkpt>
      <trkpt lat="45.69221" lon="6.56342">
        <ele>1001.947</ele>
        <time>2012-01-25T14:43:32Z</time>
      </trkpt>
      <trkpt lat="45.69221" lon="6.56342">
        <ele>1001.891</ele>
        <time>2012-01-25T14:43:42Z</time>
      </trkpt>
      <trkpt lat="45.69221" lon="6.56342">
        <ele>1002.208</ele>
        <time>2012-01-25T14:43:53Z</time>
      </trkpt>
      <trkpt lat="45.69221" lon="6.56342">
        <ele>1003.21</ele>
        <time>2012-01-25T14:44:02Z</time>
      </trkpt>
      <trkpt lat="45.69221" lon="6.56342">
        <ele>1008.095</ele>
        <time>2012-01-25T14:44:12Z</time>
      </trkpt>
      <trkpt lat="45.69221" lon="6.56342">
        <ele>1008.344</ele>
        <time>2012-01-25T14:44:22Z</time>
      </trkpt>
    </trkseg>
  </trk>
</gpx>